Terminal Aerodrome Forecast
Issued by NWS

Home | Current Version | Previous Version | Text Only | Print | Product List | Glossary On
Versions: 1 2 3 4 5 6 7 8 9 10 11 12 13 14 15 16 17 18 19 20 21 22 23 24
736
FTUS45 KGJT 252341
TAFDRO
TAF
KDRO 252341Z 2600/2624 24010G15KT P6SM VCSH BKN120
      TEMPO 2600/2602 -SHRA
     FM260200 26008G21KT P6SM VCSH BKN150
     FM261000 05006KT P6SM FEW200
     FM261600 14008KT P6SM FEW250
     FM261800 22010G15KT P6SM FEW250
     FM262200 24015G21KT P6SM FEW200=

USA.gov is the U.S. government's official web portal to all federal, state and local government web resources and services.